sensor_id;sensor_type;location;lat;lon;timestamp;pressure;altitude;pressure_sealevel;temperature;humidity
61537;BME280;48695;53.480;-6.300;2023-04-30T00:00:31;101235.97;;;16.72;82.30
61537;BME280;48695;53.480;-6.300;2023-04-30T00:02:57;101236.91;;;16.71;82.10
61537;BME280;48695;53.480;-6.300;2023-04-30T00:05:22;101231.66;;;16.70;82.13
61537;BME280;48695;53.480;-6.300;2023-04-30T00:07:47;101242.19;;;16.71;82.22
61537;BME280;48695;53.480;-6.300;2023-04-30T00:10:13;101240.41;;;16.72;82.16
61537;BME280;48695;53.480;-6.300;2023-04-30T00:12:38;101232.53;;;16.70;82.31
61537;BME280;48695;53.480;-6.300;2023-04-30T00:15:04;101238.66;;;16.71;82.02
61537;BME280;48695;53.480;-6.300;2023-04-30T00:17:30;101242.22;;;16.70;81.92
61537;BME280;48695;53.480;-6.300;2023-04-30T00:19:55;101240.44;;;16.70;81.72
61537;BME280;48695;53.480;-6.300;2023-04-30T00:22:21;101219.69;;;16.61;81.74
61537;BME280;48695;53.480;-6.300;2023-04-30T00:24:46;101237.00;;;16.68;82.00
61537;BME280;48695;53.480;-6.300;2023-04-30T00:27:12;101230.00;;;16.67;82.19
61537;BME280;48695;53.480;-6.300;2023-04-30T00:29:37;101228.28;;;16.66;81.76
61537;BME280;48695;53.480;-6.300;2023-04-30T00:32:03;101229.22;;;16.65;81.59
61537;BME280;48695;53.480;-6.300;2023-04-30T00:34:28;101226.66;;;16.64;81.79
61537;BME280;48695;53.480;-6.300;2023-04-30T00:36:54;101224.03;;;16.62;81.63
61537;BME280;48695;53.480;-6.300;2023-04-30T00:39:20;101217.19;;;16.58;82.11
61537;BME280;48695;53.480;-6.300;2023-04-30T00:41:45;101216.28;;;16.59;81.73
61537;BME280;48695;53.480;-6.300;2023-04-30T00:44:10;101211.94;;;16.58;81.64
61537;BME280;48695;53.480;-6.300;2023-04-30T00:46:36;101216.38;;;16.56;82.15
61537;BME280;48695;53.480;-6.300;2023-04-30T00:49:01;101213.88;;;16.53;81.74
61537;BME280;48695;53.480;-6.300;2023-04-30T00:51:30;101215.59;;;16.54;81.57
61537;BME280;48695;53.480;-6.300;2023-04-30T00:53:57;101200.38;;;16.39;81.79
61537;BME280;48695;53.480;-6.300;2023-04-30T00:56:24;101221.84;;;16.51;82.03
61537;BME280;48695;53.480;-6.300;2023-04-30T00:58:51;101221.13;;;16.48;81.53
61537;BME280;48695;53.480;-6.300;2023-04-30T01:01:24;101224.66;;;16.47;81.38
61537;BME280;48695;53.480;-6.300;2023-04-30T01:03:50;101230.06;;;16.44;81.38
61537;BME280;48695;53.480;-6.300;2023-04-30T01:06:16;101223.28;;;16.37;80.74
61537;BME280;48695;53.480;-6.300;2023-04-30T01:08:42;101216.53;;;16.29;80.09
61537;BME280;48695;53.480;-6.300;2023-04-30T01:14:21;101212.78;;;16.13;78.18
61537;BME280;48695;53.480;-6.300;2023-04-30T01:16:54;101206.38;;;15.97;78.49
61537;BME280;48695;53.480;-6.300;2023-04-30T01:19:43;101198.81;;;15.88;79.67
61537;BME280;48695;53.480;-6.300;2023-04-30T01:28:15;101203.19;;;15.62;78.86
61537;BME280;48695;53.480;-6.300;2023-04-30T01:30:42;101191.44;;;15.47;80.73
61537;BME280;48695;53.480;-6.300;2023-04-30T01:33:11;101201.91;;;15.49;80.97
61537;BME280;48695;53.480;-6.300;2023-04-30T01:43:22;101186.56;;;15.37;81.91
61537;BME280;48695;53.480;-6.300;2023-04-30T01:51:37;101189.38;;;15.30;79.54
61537;BME280;48695;53.480;-6.300;2023-04-30T01:54:25;101188.66;;;15.25;80.06
61537;BME280;48695;53.480;-6.300;2023-04-30T01:57:02;101181.00;;;15.19;79.99
61537;BME280;48695;53.480;-6.300;2023-04-30T01:59:31;101126.22;;;14.81;79.63
61537;BME280;48695;53.480;-6.300;2023-04-30T02:01:57;101184.00;;;15.09;78.90
61537;BME280;48695;53.480;-6.300;2023-04-30T02:04:22;101176.31;;;15.02;79.10
61537;BME280;48695;53.480;-6.300;2023-04-30T02:06:48;101172.13;;;14.97;79.72
61537;BME280;48695;53.480;-6.300;2023-04-30T02:09:13;101172.31;;;14.91;78.74
61537;BME280;48695;53.480;-6.300;2023-04-30T02:11:39;101172.47;;;14.86;78.79
61537;BME280;48695;53.480;-6.300;2023-04-30T02:14:04;101170.06;;;14.80;78.74
61537;BME280;48695;53.480;-6.300;2023-04-30T02:16:30;101167.66;;;14.72;78.74
61537;BME280;48695;53.480;-6.300;2023-04-30T02:18:56;101171.28;;;14.68;78.82
61537;BME280;48695;53.480;-6.300;2023-04-30T02:21:21;101151.31;;;14.63;79.57
61537;BME280;48695;53.480;-6.300;2023-04-30T02:23:47;101153.25;;;14.58;80.13
61537;BME280;48695;53.480;-6.300;2023-04-30T02:26:12;101150.66;;;14.56;80.43
61537;BME280;48695;53.480;-6.300;2023-04-30T02:28:37;101152.38;;;14.57;81.06
61537;BME280;48695;53.480;-6.300;2023-04-30T02:31:03;101148.03;;;14.56;81.29
61537;BME280;48695;53.480;-6.300;2023-04-30T02:33:28;101155.88;;;14.58;81.30
61537;BME280;48695;53.480;-6.300;2023-04-30T02:35:54;101147.13;;;14.57;81.78
61537;BME280;48695;53.480;-6.300;2023-04-30T02:38:19;101137.72;;;14.50;81.73
61537;BME280;48695;53.480;-6.300;2023-04-30T02:40:45;101127.28;;;14.47;82.11
61537;BME280;48695;53.480;-6.300;2023-04-30T02:43:10;101151.41;;;14.60;82.53
61537;BME280;48695;53.480;-6.300;2023-04-30T02:45:36;101151.38;;;14.61;82.22
61537;BME280;48695;53.480;-6.300;2023-04-30T02:48:01;101142.59;;;14.62;81.83
61537;BME280;48695;53.480;-6.300;2023-04-30T02:50:26;101145.13;;;14.65;81.61
61537;BME280;48695;53.480;-6.300;2023-04-30T02:52:52;101137.31;;;14.62;80.74
61537;BME280;48695;53.480;-6.300;2023-04-30T02:55:17;101141.66;;;14.63;80.63
61537;BME280;48695;53.480;-6.300;2023-04-30T02:57:43;101143.50;;;14.61;79.98
61537;BME280;48695;53.480;-6.300;2023-04-30T03:00:08;101140.16;;;14.56;79.62
61537;BME280;48695;53.480;-6.300;2023-04-30T03:02:34;101135.00;;;14.53;79.84
61537;BME280;48695;53.480;-6.300;2023-04-30T03:04:59;101127.25;;;14.48;80.78
61537;BME280;48695;53.480;-6.300;2023-04-30T03:07:25;101133.34;;;14.49;80.81
61537;BME280;48695;53.480;-6.300;2023-04-30T03:09:50;101134.28;;;14.48;80.48
61537;BME280;48695;53.480;-6.300;2023-04-30T03:12:16;101127.34;;;14.45;80.92
61537;BME280;48695;53.480;-6.300;2023-04-30T03:14:41;101130.00;;;14.44;80.58
61537;BME280;48695;53.480;-6.300;2023-04-30T03:17:07;101126.56;;;14.42;80.23
61537;BME280;48695;53.480;-6.300;2023-04-30T03:19:32;101129.25;;;14.40;80.43
61537;BME280;48695;53.480;-6.300;2023-04-30T03:21:58;101119.09;;;14.30;80.85
61537;BME280;48695;53.480;-6.300;2023-04-30T03:24:23;101123.31;;;14.34;81.23
61537;BME280;48695;53.480;-6.300;2023-04-30T03:26:49;101132.03;;;14.36;80.89
61537;BME280;48695;53.480;-6.300;2023-04-30T03:29:15;101130.31;;;14.35;80.62
61537;BME280;48695;53.480;-6.300;2023-04-30T03:31:40;101128.56;;;14.34;81.21
61537;BME280;48695;53.480;-6.300;2023-04-30T03:34:06;101121.59;;;14.33;81.45
61537;BME280;48695;53.480;-6.300;2023-04-30T03:36:31;101121.59;;;14.33;80.97
61537;BME280;48695;53.480;-6.300;2023-04-30T03:38:57;101118.16;;;14.31;80.96
61537;BME280;48695;53.480;-6.300;2023-04-30T03:41:23;101132.09;;;14.33;81.08
61537;BME280;48695;53.480;-6.300;2023-04-30T03:43:48;101128.56;;;14.34;81.48
61537;BME280;48695;53.480;-6.300;2023-04-30T03:46:14;101130.31;;;14.35;81.21
61537;BME280;48695;53.480;-6.300;2023-04-30T03:48:39;101126.75;;;14.36;81.90
61537;BME280;48695;53.480;-6.300;2023-04-30T03:51:04;101129.28;;;14.39;82.18
61537;BME280;48695;53.480;-6.300;2023-04-30T03:53:30;101119.59;;;14.41;82.16
61537;BME280;48695;53.480;-6.300;2023-04-30T03:55:56;101117.75;;;14.43;82.32
61537;BME280;48695;53.480;-6.300;2023-04-30T03:58:21;101102.25;;;14.35;82.22
61537;BME280;48695;53.480;-6.300;2023-04-30T04:00:47;101110.72;;;14.45;82.21
61537;BME280;48695;53.480;-6.300;2023-04-30T04:03:13;101110.66;;;14.46;82.47
61537;BME280;48695;53.480;-6.300;2023-04-30T04:05:39;101108.84;;;14.48;82.07
61537;BME280;48695;53.480;-6.300;2023-04-30T04:08:05;101101.81;;;14.49;82.17
61537;BME280;48695;53.480;-6.300;2023-04-30T04:10:32;101112.31;;;14.50;82.22
61537;BME280;48695;53.480;-6.300;2023-04-30T04:12:57;101107.00;;;14.52;82.42
61537;BME280;48695;53.480;-6.300;2023-04-30T04:15:23;101108.72;;;14.53;82.02
61537;BME280;48695;53.480;-6.300;2023-04-30T04:17:48;101101.66;;;14.55;82.16
61537;BME280;48695;53.480;-6.300;2023-04-30T04:20:14;101108.66;;;14.54;82.07
61537;BME280;48695;53.480;-6.300;2023-04-30T04:22:39;101098.09;;;14.56;82.36
61537;BME280;48695;53.480;-6.300;2023-04-30T04:25:05;101110.34;;;14.57;81.87
61537;BME280;48695;53.480;-6.300;2023-04-30T04:27:31;101105.06;;;14.57;82.20
61537;BME280;48695;53.480;-6.300;2023-04-30T04:29:56;101109.41;;;14.58;81.91
61537;BME280;48695;53.480;-6.300;2023-04-30T04:32:22;101105.06;;;14.57;81.67
61537;BME280;48695;53.480;-6.300;2023-04-30T04:34:47;101106.84;;;14.57;82.07
61537;BME280;48695;53.480;-6.300;2023-04-30T04:37:13;101100.69;;;14.58;81.95
61537;BME280;48695;53.480;-6.300;2023-04-30T04:39:39;101098.91;;;14.58;81.95
61537;BME280;48695;53.480;-6.300;2023-04-30T04:42:04;101096.28;;;14.58;82.09
61537;BME280;48695;53.480;-6.300;2023-04-30T04:44:30;101099.75;;;14.59;82.29
61537;BME280;48695;53.480;-6.300;2023-04-30T04:46:56;101089.41;;;14.54;81.78
61537;BME280;48695;53.480;-6.300;2023-04-30T04:49:22;101094.50;;;14.59;81.81
61537;BME280;48695;53.480;-6.300;2023-04-30T04:51:48;101093.56;;;14.61;81.77
61537;BME280;48695;53.480;-6.300;2023-04-30T04:54:13;101091.78;;;14.62;81.72
61537;BME280;48695;53.480;-6.300;2023-04-30T04:56:39;101072.03;;;14.50;81.91
61537;BME280;48695;53.480;-6.300;2023-04-30T04:59:04;101089.09;;;14.63;81.89
61537;BME280;48695;53.480;-6.300;2023-04-30T05:01:29;101078.78;;;14.57;81.87
61537;BME280;48695;53.480;-6.300;2023-04-30T05:03:55;101086.47;;;14.63;81.96
61537;BME280;48695;53.480;-6.300;2023-04-30T05:06:20;101089.09;;;14.63;81.71
61537;BME280;48695;53.480;-6.300;2023-04-30T05:08:46;101089.94;;;14.64;81.71
61537;BME280;48695;53.480;-6.300;2023-04-30T05:11:11;101041.78;;;14.37;81.96
61537;BME280;48695;53.480;-6.300;2023-04-30T05:13:37;101084.66;;;14.65;82.27
61537;BME280;48695;53.480;-6.300;2023-04-30T05:16:02;101085.47;;;14.67;81.83
61537;BME280;48695;53.480;-6.300;2023-04-30T05:18:28;101051.91;;;14.49;82.31
61537;BME280;48695;53.480;-6.300;2023-04-30T05:20:53;101085.38;;;14.70;81.79
61537;BME280;48695;53.480;-6.300;2023-04-30T05:23:19;101088.72;;;14.74;82.05
61537;BME280;48695;53.480;-6.300;2023-04-30T05:25:44;101072.25;;;14.69;81.96
61537;BME280;48695;53.480;-6.300;2023-04-30T05:28:10;101083.31;;;14.78;81.90
61537;BME280;48695;53.480;-6.300;2023-04-30T05:30:36;101071.41;;;14.68;81.96
61537;BME280;48695;53.480;-6.300;2023-04-30T05:33:01;101076.34;;;14.77;82.01
61537;BME280;48695;53.480;-6.300;2023-04-30T05:35:26;101073.72;;;14.77;81.45
61537;BME280;48695;53.480;-6.300;2023-04-30T05:37:52;101079.69;;;14.83;81.22
61537;BME280;48695;53.480;-6.300;2023-04-30T05:40:17;101082.31;;;14.83;80.79
61537;BME280;48695;53.480;-6.300;2023-04-30T05:42:43;101072.72;;;14.82;80.91
61537;BME280;48695;53.480;-6.300;2023-04-30T05:45:12;101075.28;;;14.83;80.92
61537;BME280;48695;53.480;-6.300;2023-04-30T05:47:39;101077.97;;;14.82;81.37
61537;BME280;48695;53.480;-6.300;2023-04-30T05:50:05;101077.97;;;14.82;80.46
61537;BME280;48695;53.480;-6.300;2023-04-30T05:52:31;101059.09;;;14.70;80.49
61537;BME280;48695;53.480;-6.300;2023-04-30T05:54:57;101078.91;;;14.81;80.76
61537;BME280;48695;53.480;-6.300;2023-04-30T05:57:22;101083.22;;;14.82;79.90
61537;BME280;48695;53.480;-6.300;2023-04-30T05:59:48;101081.53;;;14.81;80.69
61537;BME280;48695;53.480;-6.300;2023-04-30T06:02:13;101078.91;;;14.81;79.87
61537;BME280;48695;53.480;-6.300;2023-04-30T06:04:39;101079.78;;;14.79;79.83
61537;BME280;48695;53.480;-6.300;2023-04-30T06:07:04;101076.34;;;14.77;80.08
61537;BME280;48695;53.480;-6.300;2023-04-30T06:09:30;101084.25;;;14.77;80.09
61537;BME280;48695;53.480;-6.300;2023-04-30T06:11:55;101027.47;;;14.45;80.38
61537;BME280;48695;53.480;-6.300;2023-04-30T06:14:21;101073.81;;;14.74;80.27
61537;BME280;48695;53.480;-6.300;2023-04-30T06:16:47;101080.00;;;14.73;80.39
61537;BME280;48695;53.480;-6.300;2023-04-30T06:19:13;101081.69;;;14.74;80.14
61537;BME280;48695;53.480;-6.300;2023-04-30T06:21:38;101090.44;;;14.75;79.89
61537;BME280;48695;53.480;-6.300;2023-04-30T06:24:04;101088.72;;;14.75;79.86
61537;BME280;48695;53.480;-6.300;2023-04-30T06:26:31;101092.22;;;14.74;79.67
61537;BME280;48695;53.480;-6.300;2023-04-30T06:28:56;101090.56;;;14.72;79.78
61537;BME280;48695;53.480;-6.300;2023-04-30T06:31:22;101095.72;;;14.75;79.70
61537;BME280;48695;53.480;-6.300;2023-04-30T06:33:47;101091.38;;;14.74;79.79
61537;BME280;48695;53.480;-6.300;2023-04-30T06:36:13;101095.72;;;14.75;79.91
61537;BME280;48695;53.480;-6.300;2023-04-30T06:38:39;101099.09;;;14.78;79.80
61537;BME280;48695;53.480;-6.300;2023-04-30T06:41:05;101090.50;;;14.73;79.62
61537;BME280;48695;53.480;-6.300;2023-04-30T06:43:31;101091.34;;;14.75;79.91
61537;BME280;48695;53.480;-6.300;2023-04-30T06:45:56;101084.50;;;14.70;80.03
61537;BME280;48695;53.480;-6.300;2023-04-30T06:48:21;101104.19;;;14.83;79.79
61537;BME280;48695;53.480;-6.300;2023-04-30T06:50:47;101086.66;;;14.84;80.34
61537;BME280;48695;53.480;-6.300;2023-04-30T06:53:13;101091.81;;;14.87;80.04
61537;BME280;48695;53.480;-6.300;2023-04-30T06:55:40;101104.06;;;14.88;79.75
61537;BME280;48695;53.480;-6.300;2023-04-30T06:58:05;101098.69;;;14.91;79.42
61537;BME280;48695;53.480;-6.300;2023-04-30T07:00:32;101103.03;;;14.92;80.08
61537;BME280;48695;53.480;-6.300;2023-04-30T07:02:57;101095.94;;;14.94;80.19
61537;BME280;48695;53.480;-6.300;2023-04-30T07:05:27;101101.97;;;14.97;79.72
61537;BME280;48695;53.480;-6.300;2023-04-30T07:07:53;101099.25;;;15.00;79.66
61537;BME280;48695;53.480;-6.300;2023-04-30T07:10:18;101094.84;;;15.01;79.74
61537;BME280;48695;53.480;-6.300;2023-04-30T07:12:44;101093.00;;;15.03;79.57
61537;BME280;48695;53.480;-6.300;2023-04-30T07:15:10;101101.59;;;15.08;79.70
61537;BME280;48695;53.480;-6.300;2023-04-30T07:17:35;101098.88;;;15.11;80.14
61537;BME280;48695;53.480;-6.300;2023-04-30T07:20:02;101100.50;;;15.14;80.11
61537;BME280;48695;53.480;-6.300;2023-04-30T07:22:29;101097.72;;;15.18;79.80
61537;BME280;48695;53.480;-6.300;2023-04-30T07:24:54;101102.91;;;15.21;80.13
61537;BME280;48695;53.480;-6.300;2023-04-30T07:27:20;101097.63;;;15.21;79.64
61537;BME280;48695;53.480;-6.300;2023-04-30T07:29:45;101104.38;;;15.28;79.62
61537;BME280;48695;53.480;-6.300;2023-04-30T07:32:11;101117.31;;;15.35;80.13
61537;BME280;48695;53.480;-6.300;2023-04-30T07:34:36;101103.13;;;15.39;79.69
61537;BME280;48695;53.480;-6.300;2023-04-30T07:37:02;101107.25;;;15.46;79.60
61537;BME280;48695;53.480;-6.300;2023-04-30T07:39:28;101110.56;;;15.51;79.58
61537;BME280;48695;53.480;-6.300;2023-04-30T07:41:53;101113.97;;;15.54;79.84
61537;BME280;48695;53.480;-6.300;2023-04-30T07:44:19;101111.09;;;15.61;79.52
61537;BME280;48695;53.480;-6.300;2023-04-30T07:46:45;101113.59;;;15.65;79.74
61537;BME280;48695;53.480;-6.300;2023-04-30T07:49:11;101123.91;;;15.71;79.38
61537;BME280;48695;53.480;-6.300;2023-04-30T07:51:36;101130.75;;;15.75;79.00
61537;BME280;48695;53.480;-6.300;2023-04-30T07:54:03;101121.97;;;15.76;79.13
61537;BME280;48695;53.480;-6.300;2023-04-30T07:56:28;101122.84;;;15.77;78.79
61537;BME280;48695;53.480;-6.300;2023-04-30T07:58:54;101127.09;;;15.79;78.98
61537;BME280;48695;53.480;-6.300;2023-04-30T08:01:20;101120.06;;;15.80;78.86
61537;BME280;48695;53.480;-6.300;2023-04-30T08:03:45;101120.91;;;15.80;78.52
61537;BME280;48695;53.480;-6.300;2023-04-30T08:06:11;101123.56;;;15.80;78.55
61537;BME280;48695;53.480;-6.300;2023-04-30T08:08:36;101119.03;;;15.84;78.91
61537;BME280;48695;53.480;-6.300;2023-04-30T08:11:02;101124.13;;;15.89;78.76
61537;BME280;48695;53.480;-6.300;2023-04-30T08:13:27;101114.38;;;15.91;78.80
61537;BME280;48695;53.480;-6.300;2023-04-30T08:15:53;101126.34;;;15.99;78.81
61537;BME280;48695;53.480;-6.300;2023-04-30T08:18:18;101120.13;;;16.02;78.99
61537;BME280;48695;53.480;-6.300;2023-04-30T08:20:44;101130.41;;;16.08;79.05
61537;BME280;48695;53.480;-6.300;2023-04-30T08:23:09;101121.47;;;16.12;78.85
61537;BME280;48695;53.480;-6.300;2023-04-30T08:25:34;101123.91;;;16.17;78.83
61537;BME280;48695;53.480;-6.300;2023-04-30T08:28:01;101122.88;;;16.21;78.52
61537;BME280;48695;53.480;-6.300;2023-04-30T08:30:26;101114.00;;;16.23;78.64
61537;BME280;48695;53.480;-6.300;2023-04-30T08:32:52;101121.66;;;16.29;78.73
61537;BME280;48695;53.480;-6.300;2023-04-30T08:35:17;101114.69;;;16.28;78.46
61537;BME280;48695;53.480;-6.300;2023-04-30T08:37:43;101102.53;;;16.24;78.61
61537;BME280;48695;53.480;-6.300;2023-04-30T08:40:09;101124.88;;;16.38;78.44
61537;BME280;48695;53.480;-6.300;2023-04-30T08:42:36;101131.59;;;16.45;78.58
61537;BME280;48695;53.480;-6.300;2023-04-30T08:45:07;101131.16;;;16.55;78.34
61537;BME280;48695;53.480;-6.300;2023-04-30T08:47:36;101126.47;;;16.62;78.24
61537;BME280;48695;53.480;-6.300;2023-04-30T08:50:03;101127.97;;;16.69;77.99
61537;BME280;48695;53.480;-6.300;2023-04-30T08:52:28;101138.19;;;16.78;78.16
61537;BME280;48695;53.480;-6.300;2023-04-30T08:54:56;101126.56;;;16.82;77.40
61537;BME280;48695;53.480;-6.300;2023-04-30T08:57:21;101127.47;;;16.81;77.48
61537;BME280;48695;53.480;-6.300;2023-04-30T08:59:47;101125.50;;;16.86;77.80
61537;BME280;48695;53.480;-6.300;2023-04-30T09:02:12;101127.75;;;16.96;78.07
61537;BME280;48695;53.480;-6.300;2023-04-30T09:04:38;101104.09;;;16.94;77.81
61537;BME280;48695;53.480;-6.300;2023-04-30T09:07:03;101120.84;;;17.14;77.71
61537;BME280;48695;53.480;-6.300;2023-04-30T09:09:36;101125.50;;;17.27;77.21
61537;BME280;48695;53.480;-6.300;2023-04-30T09:12:13;101119.06;;;17.34;76.85
61537;BME280;48695;53.480;-6.300;2023-04-30T09:14:40;101122.56;;;17.35;76.91
61537;BME280;48695;53.480;-6.300;2023-04-30T09:17:06;101124.06;;;17.41;76.97
61537;BME280;48695;53.480;-6.300;2023-04-30T09:19:33;101121.94;;;17.49;77.07
61537;BME280;48695;53.480;-6.300;2023-04-30T09:22:18;101119.09;;;17.72;77.40
61537;BME280;48695;53.480;-6.300;2023-04-30T09:24:47;101125.41;;;17.88;76.88
61537;BME280;48695;53.480;-6.300;2023-04-30T09:27:18;101098.28;;;18.04;77.04
61537;BME280;48695;53.480;-6.300;2023-04-30T09:29:44;101098.16;;;18.07;76.14
61537;BME280;48695;53.480;-6.300;2023-04-30T09:32:10;101121.09;;;18.42;75.49
61537;BME280;48695;53.480;-6.300;2023-04-30T09:34:36;101127.22;;;18.62;75.36
61537;BME280;48695;53.480;-6.300;2023-04-30T09:37:01;101125.41;;;18.81;75.00
61537;BME280;48695;53.480;-6.300;2023-04-30T09:39:28;101133.31;;;18.99;74.64
61537;BME280;48695;53.480;-6.300;2023-04-30T09:42:07;101120.09;;;19.16;74.34
61537;BME280;48695;53.480;-6.300;2023-04-30T09:44:39;101111.44;;;19.12;74.14
61537;BME280;48695;53.480;-6.300;2023-04-30T09:47:10;101129.56;;;19.20;73.41
61537;BME280;48695;53.480;-6.300;2023-04-30T09:49:40;101122.75;;;19.16;73.40
61537;BME280;48695;53.480;-6.300;2023-04-30T09:52:05;101125.44;;;19.14;73.61
61537;BME280;48695;53.480;-6.300;2023-04-30T09:54:31;101097.91;;;19.01;73.72
61537;BME280;48695;53.480;-6.300;2023-04-30T09:57:00;101117.97;;;19.23;74.49
61537;BME280;48695;53.480;-6.300;2023-04-30T09:59:31;101109.16;;;19.39;74.19
61537;BME280;48695;53.480;-6.300;2023-04-30T10:02:01;101120.16;;;19.65;74.27
61537;BME280;48695;53.480;-6.300;2023-04-30T10:04:52;101124.31;;;19.86;74.20
61537;BME280;48695;53.480;-6.300;2023-04-30T10:07:20;101123.28;;;19.89;73.68
61537;BME280;48695;53.480;-6.300;2023-04-30T10:10:07;101118.00;;;20.05;73.31
61537;BME280;48695;53.480;-6.300;2023-04-30T10:12:46;101123.13;;;20.08;72.68
61537;BME280;48695;53.480;-6.300;2023-04-30T10:15:32;101123.75;;;20.13;72.94
61537;BME280;48695;53.480;-6.300;2023-04-30T10:18:03;101117.59;;;20.12;72.98
61537;BME280;48695;53.480;-6.300;2023-04-30T10:20:30;101124.34;;;20.18;72.98
61537;BME280;48695;53.480;-6.300;2023-04-30T10:22:59;101122.28;;;20.23;72.75
61537;BME280;48695;53.480;-6.300;2023-04-30T10:25:25;101128.25;;;20.27;71.57
61537;BME280;48695;53.480;-6.300;2023-04-30T10:27:52;101123.88;;;20.41;72.12
61537;BME280;48695;53.480;-6.300;2023-04-30T10:30:17;101100.22;;;20.23;71.40
61537;BME280;48695;53.480;-6.300;2023-04-30T10:35:27;101123.13;;;20.39;71.60
61537;BME280;48695;53.480;-6.300;2023-04-30T10:38:12;101125.88;;;20.54;71.72
61537;BME280;48695;53.480;-6.300;2023-04-30T10:40:39;101118.66;;;20.56;70.70
61537;BME280;48695;53.480;-6.300;2023-04-30T10:43:04;101118.31;;;20.62;70.63
61537;BME280;48695;53.480;-6.300;2023-04-30T10:45:34;101128.97;;;20.76;71.06
61537;BME280;48695;53.480;-6.300;2023-04-30T10:48:02;101119.69;;;20.83;71.37
61537;BME280;48695;53.480;-6.300;2023-04-30T10:50:28;101105.19;;;21.05;71.07
61537;BME280;48695;53.480;-6.300;2023-04-30T10:53:01;101086.22;;;21.25;71.77
61537;BME280;48695;53.480;-6.300;2023-04-30T10:55:29;101090.06;;;21.49;71.27
61537;BME280;48695;53.480;-6.300;2023-04-30T10:57:54;101103.69;;;21.86;70.24
61537;BME280;48695;53.480;-6.300;2023-04-30T11:00:27;101102.22;;;22.23;70.34
61537;BME280;48695;53.480;-6.300;2023-04-30T11:02:57;101099.66;;;22.49;70.18
61537;BME280;48695;53.480;-6.300;2023-04-30T11:05:37;101101.34;;;22.77;69.38
61537;BME280;48695;53.480;-6.300;2023-04-30T11:08:03;101093.06;;;22.94;68.26
61537;BME280;48695;53.480;-6.300;2023-04-30T11:10:33;101100.25;;;23.32;68.31
61537;BME280;48695;53.480;-6.300;2023-04-30T11:13:03;101087.50;;;23.61;65.80
61537;BME280;48695;53.480;-6.300;2023-04-30T11:15:44;101083.81;;;24.00;68.50
61537;BME280;48695;53.480;-6.300;2023-04-30T11:18:09;101083.94;;;24.23;66.10
61537;BME280;48695;53.480;-6.300;2023-04-30T11:20:40;101086.34;;;24.63;66.19
61537;BME280;48695;53.480;-6.300;2023-04-30T11:23:14;101084.81;;;24.82;64.53
61537;BME280;48695;53.480;-6.300;2023-04-30T11:25:44;101079.91;;;25.00;63.74
61537;BME280;48695;53.480;-6.300;2023-04-30T11:28:15;101085.06;;;25.26;63.78
61537;BME280;48695;53.480;-6.300;2023-04-30T11:31:02;101093.72;;;25.52;64.99
61537;BME280;48695;53.480;-6.300;2023-04-30T11:33:29;101096.75;;;25.47;59.22
61537;BME280;48695;53.480;-6.300;2023-04-30T11:35:55;101105.25;;;25.52;60.68
61537;BME280;48695;53.480;-6.300;2023-04-30T11:38:25;101101.78;;;25.05;59.85
61537;BME280;48695;53.480;-6.300;2023-04-30T11:40:50;101102.81;;;24.56;60.13
61537;BME280;48695;53.480;-6.300;2023-04-30T11:43:26;101093.06;;;24.07;60.24
61537;BME280;48695;53.480;-6.300;2023-04-30T11:46:16;101094.38;;;23.52;61.82
61537;BME280;48695;53.480;-6.300;2023-04-30T11:48:46;101090.94;;;22.99;62.72
61537;BME280;48695;53.480;-6.300;2023-04-30T11:51:18;101088.69;;;22.53;65.09
61537;BME280;48695;53.480;-6.300;2023-04-30T11:53:47;101086.47;;;22.20;63.93
61537;BME280;48695;53.480;-6.300;2023-04-30T11:56:16;101087.75;;;21.86;67.11
61537;BME280;48695;53.480;-6.300;2023-04-30T11:58:42;101045.75;;;21.36;66.43
61537;BME280;48695;53.480;-6.300;2023-04-30T12:01:07;101067.28;;;21.31;70.06
61537;BME280;48695;53.480;-6.300;2023-04-30T12:03:46;101070.00;;;21.15;69.81
61537;BME280;48695;53.480;-6.300;2023-04-30T12:06:20;101072.75;;;21.14;70.27
61537;BME280;48695;53.480;-6.300;2023-04-30T12:08:46;101050.00;;;21.10;72.52
61537;BME280;48695;53.480;-6.300;2023-04-30T12:11:22;101064.06;;;21.55;72.23
61537;BME280;48695;53.480;-6.300;2023-04-30T12:13:50;101058.66;;;21.97;71.30
61537;BME280;48695;53.480;-6.300;2023-04-30T12:16:15;101061.81;;;22.31;70.83
61537;BME280;48695;53.480;-6.300;2023-04-30T12:18:41;101051.72;;;22.76;69.11
61537;BME280;48695;53.480;-6.300;2023-04-30T12:21:06;101041.72;;;23.18;68.64
61537;BME280;48695;53.480;-6.300;2023-04-30T12:23:32;101051.94;;;23.49;67.73
61537;BME280;48695;53.480;-6.300;2023-04-30T12:25:58;101053.59;;;23.76;66.39
61537;BME280;48695;53.480;-6.300;2023-04-30T12:28:24;101057.81;;;23.91;66.70
61537;BME280;48695;53.480;-6.300;2023-04-30T12:30:52;101052.53;;;24.02;66.16
61537;BME280;48695;53.480;-6.300;2023-04-30T12:33:17;101058.50;;;24.06;66.64
61537;BME280;48695;53.480;-6.300;2023-04-30T12:35:43;101056.00;;;24.16;65.95
61537;BME280;48695;53.480;-6.300;2023-04-30T12:38:09;101059.78;;;24.37;65.78
61537;BME280;48695;53.480;-6.300;2023-04-30T12:40:34;101042.41;;;24.67;67.40
61537;BME280;48695;53.480;-6.300;2023-04-30T12:43:07;101044.00;;;25.16;67.17
61537;BME280;48695;53.480;-6.300;2023-04-30T12:45:53;101039.59;;;25.59;66.29
61537;BME280;48695;53.480;-6.300;2023-04-30T12:48:21;101038.34;;;25.97;63.22
61537;BME280;48695;53.480;-6.300;2023-04-30T12:50:54;101032.94;;;26.52;63.55
61537;BME280;48695;53.480;-6.300;2023-04-30T12:53:20;101020.84;;;26.78;63.01
61537;BME280;48695;53.480;-6.300;2023-04-30T12:56:12;101023.56;;;27.39;62.03
61537;BME280;48695;53.480;-6.300;2023-04-30T12:58:40;101023.34;;;27.62;55.25
61537;BME280;48695;53.480;-6.300;2023-04-30T13:01:10;101016.38;;;27.90;59.27
61537;BME280;48695;53.480;-6.300;2023-04-30T13:03:36;101021.19;;;28.06;57.01
61537;BME280;48695;53.480;-6.300;2023-04-30T13:06:01;101027.59;;;28.24;58.77